Decoded Metar for ZMUB (ULAN BATOR in MONGOLIA) (IATA:ULN) | Meteo·Mobile Aviation Weather
aviador You're here:

ZMUB Decoded Metar

ULAN BATOR in MONGOLIA
Report Time2018-08-21 10:00:00
UTC Time2018-08-21 10:37:19
Flight Rules vfr VFR
Wind140° at 10 kt
W.Decomp.*RWY 15: 9.9 kt HW 1.2 kt LCW
RWY 14: 10.0 kt HW 0.5 kt RCW
W.Rank140° ranks 11
Current wind is above 140° avg. (9.7)
Visibility9999 m
Phenomena:Light Shower Rain
Clouds:Scattered CB 030 Hf
Scattered 033 Hf
Expected CloudBase > 3,200 ft AGL from Temp-Dew spread
CeilingNone
Temp18°C (ISA +12)
Dew Point10°C (60% RH)
AAT14.5°C
QNH1013 hPa
Density Alt5,896 ft
Elevation4,364 ft
Report Wrong Elevation
Raw Report
METAR ZMUB 211000Z 14005MPS 9999 -SHRA SCT030CB SCT033 18/10 Q1013
NOSIG RMK QFE652.8 59 MOP=####018000085####
SAEU15 KAWN 211000 RRC

Extra information for ZMUB:More info

Metar Taf Metar & Taf Last 4 Metars F.Rules Stats Wind Profile Meteogram Temp Stats Airport Information Weather charts Add Link Nearby VenuesMetar ALERT Operation Metar Decoded Social comments